Terminal Aerodrome Forecast
Issued by NWS Omaha/Valley, NE

Home | Current Version | Previous Version | Text Only | Print | Product List | Glossary Off
Versions: 1 2 3 4 5 6 7 8 9 10 11 12 13 14 15 16 17 18 19 20 21 22

000
FTUS43 KOAX 220803 AAA
TAFOFK
TAF AMD
KOFK 220803Z 2208/2306 32007KT 6SM BR SKC
     FM220900 32008KT 6SM BR OVC010
     FM221500 33012KT P6SM BKN015
     FM221700 33013KT P6SM SCT035
     FM222300 32009KT P6SM SCT250=

USA.gov is the U.S. government's official web portal to all federal, state and local government web resources and services.